createdAt,value
2018-12-18T00:02:07.353Z,20.87
2018-12-18T00:04:34.788Z,18.80
2018-12-18T00:07:02.626Z,23.77
2018-12-18T00:09:30.075Z,23.43
2018-12-18T00:11:59.434Z,23.77
2018-12-18T00:14:27.917Z,25.73
2018-12-18T00:16:55.757Z,28.73
2018-12-18T00:19:23.186Z,27.83
2018-12-18T00:21:50.605Z,32.07
2018-12-18T00:24:18.036Z,29.27
2018-12-18T00:26:45.457Z,28.87
2018-12-18T00:29:12.892Z,30.90
2018-12-18T00:31:40.780Z,31.53
2018-12-18T00:34:08.183Z,32.27
2018-12-18T00:36:35.604Z,30.20
2018-12-18T00:39:04.228Z,31.87
2018-12-18T00:41:32.244Z,30.83
2018-12-18T00:43:59.670Z,30.23
2018-12-18T00:46:29.009Z,30.63
2018-12-18T00:48:56.416Z,31.83
2018-12-18T00:51:25.257Z,30.40
2018-12-18T00:53:52.676Z,27.83
2018-12-18T00:56:23.024Z,30.77
2018-12-18T00:58:50.412Z,29.50
2018-12-18T01:01:17.847Z,30.70
2018-12-18T01:03:52.723Z,31.40
2018-12-18T01:06:17.488Z,31.33
2018-12-18T01:08:44.920Z,33.77
2018-12-18T01:11:12.341Z,32.53
2018-12-18T01:13:39.801Z,33.03
2018-12-18T01:16:07.242Z,30.87
2018-12-18T01:18:34.658Z,33.13
2018-12-18T01:21:02.640Z,31.53
2018-12-18T01:23:30.070Z,32.10
2018-12-18T01:25:57.549Z,28.93
2018-12-18T01:28:24.980Z,30.60
2018-12-18T01:30:52.824Z,28.87
2018-12-18T01:33:20.826Z,30.23
2018-12-18T01:35:48.246Z,29.27
2018-12-18T01:38:16.445Z,28.10
2018-12-18T01:40:43.920Z,27.47
2018-12-18T01:43:11.345Z,27.57
2018-12-18T01:45:38.768Z,31.93
2018-12-18T01:48:06.184Z,31.13
2018-12-18T01:50:33.722Z,30.10
2018-12-18T01:53:01.117Z,30.10
2018-12-18T01:55:28.583Z,29.50
2018-12-18T01:57:56.084Z,28.30
2018-12-18T02:00:23.540Z,29.60
2018-12-18T02:02:51.040Z,31.20
2018-12-18T02:05:18.460Z,31.50
2018-12-18T02:07:45.971Z,32.37
2018-12-18T02:10:13.434Z,31.50
2018-12-18T02:12:40.902Z,30.63
2018-12-18T02:15:08.425Z,33.73
2018-12-18T02:17:35.853Z,34.07
2018-12-18T02:20:06.205Z,34.20
2018-12-18T02:22:34.005Z,32.50
2018-12-18T02:25:01.901Z,32.07
2018-12-18T02:27:31.120Z,29.23
2018-12-18T02:29:58.543Z,29.17
2018-12-18T02:32:25.964Z,29.97
2018-12-18T02:34:53.398Z,29.47
2018-12-18T02:37:20.824Z,29.93
2018-12-18T02:39:48.284Z,30.70
2018-12-18T02:42:15.701Z,29.90
2018-12-18T02:44:43.133Z,32.23
2018-12-18T02:47:10.556Z,32.03
2018-12-18T02:49:38.411Z,32.33
2018-12-18T02:52:05.829Z,30.83
2018-12-18T02:54:33.256Z,32.50
2018-12-18T02:57:00.693Z,31.40
2018-12-18T02:59:28.244Z,29.23
2018-12-18T03:01:55.687Z,31.80
2018-12-18T03:04:25.864Z,27.80
2018-12-18T03:06:53.984Z,31.20
2018-12-18T03:09:21.428Z,30.77
2018-12-18T03:11:48.894Z,29.00
2018-12-18T03:14:16.320Z,29.70
2018-12-18T03:16:43.793Z,28.63
2018-12-18T03:19:12.073Z,27.43
2018-12-18T03:21:40.994Z,26.60
2018-12-18T03:24:08.427Z,26.23
2018-12-18T03:26:35.830Z,26.67
2018-12-18T03:29:03.281Z,26.07
2018-12-18T03:31:30.994Z,27.50
2018-12-18T03:33:59.336Z,30.47
2018-12-18T03:36:26.739Z,29.23
2018-12-18T03:38:56.108Z,27.17
2018-12-18T03:41:23.598Z,28.77
2018-12-18T03:43:51.665Z,27.83
2018-12-18T03:46:19.625Z,26.33
2018-12-18T03:48:47.080Z,26.17
2018-12-18T03:51:14.969Z,32.57
2018-12-18T03:53:42.374Z,28.53
2018-12-18T03:56:09.798Z,26.30
2018-12-18T03:58:37.230Z,30.67
2018-12-18T04:01:05.301Z,28.17
2018-12-18T04:03:32.743Z,28.77
2018-12-18T04:06:00.248Z,27.97
2018-12-18T04:08:27.780Z,29.37
2018-12-18T04:10:55.916Z,29.00
2018-12-18T04:13:23.341Z,29.50
2018-12-18T04:15:50.843Z,32.83
2018-12-18T04:18:18.345Z,32.30
2018-12-18T04:20:45.863Z,30.07
2018-12-18T04:23:13.363Z,33.20
2018-12-18T04:25:40.784Z,29.97
2018-12-18T04:28:08.625Z,32.50
2018-12-18T04:30:38.511Z,28.90
2018-12-18T04:33:06.456Z,27.73
2018-12-18T04:35:33.904Z,34.10
2018-12-18T04:38:01.334Z,32.47
2018-12-18T04:40:28.748Z,29.73
2018-12-18T04:42:56.429Z,32.23
2018-12-18T04:45:23.826Z,33.63
2018-12-18T04:47:51.247Z,33.03
2018-12-18T04:50:18.696Z,31.03
2018-12-18T04:52:46.261Z,31.47
2018-12-18T04:55:13.685Z,37.20
2018-12-18T04:57:41.116Z,32.73
2018-12-18T05:00:10.646Z,34.43
2018-12-18T05:02:38.424Z,35.43
2018-12-18T05:05:06.045Z,35.13
2018-12-18T05:07:34.551Z,32.77
2018-12-18T05:10:02.075Z,32.07
2018-12-18T05:12:29.812Z,31.53
2018-12-18T05:14:57.357Z,32.03
2018-12-18T05:17:24.858Z,30.87
2018-12-18T05:19:52.277Z,36.50
2018-12-18T05:22:19.708Z,33.53
2018-12-18T05:24:47.848Z,28.10
2018-12-18T05:27:15.274Z,27.63
2018-12-18T05:29:42.696Z,28.63
2018-12-18T05:32:10.173Z,27.87
2018-12-18T05:34:37.587Z,29.10
2018-12-18T05:37:05.580Z,27.10
2018-12-18T05:39:33.003Z,28.87
2018-12-18T05:42:01.391Z,27.47
2018-12-18T05:44:28.828Z,27.70
2018-12-18T05:46:56.262Z,26.40
2018-12-18T05:49:30.917Z,26.73
2018-12-18T05:54:33.626Z,26.63
2018-12-18T05:57:01.674Z,28.07
2018-12-18T05:59:29.088Z,27.73
2018-12-18T06:01:56.554Z,27.47
2018-12-18T06:04:23.964Z,29.00
2018-12-18T06:06:51.397Z,29.80
2018-12-18T06:09:18.813Z,29.03
2018-12-18T06:11:46.296Z,29.53
2018-12-18T06:14:13.712Z,28.83
2018-12-18T06:16:41.171Z,29.17
2018-12-18T06:19:08.598Z,27.80
2018-12-18T06:21:36.103Z,27.77
2018-12-18T06:24:03.574Z,29.10
2018-12-18T06:26:31.392Z,30.23
2018-12-18T06:28:58.888Z,30.03
2018-12-18T06:31:27.010Z,33.43
2018-12-18T06:33:54.925Z,33.30
2018-12-18T06:36:22.325Z,33.13
2018-12-18T06:38:50.156Z,33.03
2018-12-18T06:41:17.610Z,35.23
2018-12-18T06:43:45.033Z,35.77
2018-12-18T06:46:12.525Z,37.17
2018-12-18T06:48:40.355Z,34.67
2018-12-18T06:51:07.774Z,35.80
2018-12-18T06:53:35.336Z,35.97
2018-12-18T06:56:02.750Z,36.33
2018-12-18T06:58:30.174Z,37.00
2018-12-18T07:00:58.016Z,31.53
2018-12-18T07:03:25.435Z,30.93
2018-12-18T07:05:53.029Z,31.80
2018-12-18T07:08:20.840Z,32.27
2018-12-18T07:10:48.256Z,35.80
2018-12-18T07:13:15.671Z,34.73
2018-12-18T07:15:45.665Z,33.30
2018-12-18T07:18:13.085Z,36.13
2018-12-18T07:20:40.499Z,36.27
2018-12-18T07:23:08.320Z,34.63
2018-12-18T07:25:35.823Z,34.43
2018-12-18T07:28:03.509Z,37.10
2018-12-18T07:30:31.012Z,36.97
2018-12-18T07:32:58.448Z,38.33
2018-12-18T07:35:25.914Z,37.33
2018-12-18T07:37:53.328Z,38.83
2018-12-18T07:40:21.469Z,39.47
2018-12-18T07:42:48.895Z,39.77
2018-12-18T07:45:16.769Z,40.70
2018-12-18T07:47:44.212Z,42.27
2018-12-18T07:50:11.751Z,42.63
2018-12-18T07:52:39.171Z,43.27
2018-12-18T07:55:06.660Z,44.37
2018-12-18T07:57:37.656Z,43.97
2018-12-18T08:00:05.973Z,42.90
2018-12-18T08:02:33.504Z,41.90
2018-12-18T08:05:01.326Z,42.33
2018-12-18T08:07:28.861Z,41.60
2018-12-18T08:09:56.304Z,41.07
2018-12-18T08:12:25.662Z,41.30
2018-12-18T08:14:53.159Z,40.87
2018-12-18T08:17:20.625Z,40.93
2018-12-18T08:19:48.103Z,39.13
2018-12-18T08:22:15.489Z,40.53
2018-12-18T08:24:42.990Z,41.67
2018-12-18T08:27:10.463Z,38.60
2018-12-18T08:29:37.872Z,38.97
2018-12-18T08:32:05.301Z,38.30
2018-12-18T08:34:33.268Z,38.93
2018-12-18T08:37:00.924Z,37.53
2018-12-18T08:39:29.299Z,37.23
2018-12-18T08:41:56.732Z,35.77
2018-12-18T08:44:24.152Z,37.50
2018-12-18T08:46:52.453Z,39.60
2018-12-18T08:49:20.941Z,38.50
2018-12-18T08:51:48.352Z,38.73
2018-12-18T08:54:15.768Z,35.90
2018-12-18T08:56:43.216Z,35.93
2018-12-18T08:59:11.048Z,35.63
2018-12-18T09:01:38.468Z,33.33
2018-12-18T09:04:06.133Z,34.30
2018-12-18T09:06:34.223Z,30.23
2018-12-18T09:09:01.702Z,30.97
2018-12-18T09:11:31.705Z,28.33
2018-12-18T09:13:59.126Z,21.20
2018-12-18T09:16:32.160Z,19.83
2018-12-18T09:18:59.588Z,19.70
2018-12-18T09:21:27.017Z,19.83
2018-12-18T09:23:56.368Z,21.87
2018-12-18T09:26:24.335Z,18.33
2018-12-18T09:28:52.324Z,18.13
2018-12-18T09:31:20.428Z,18.50
2018-12-18T09:33:47.857Z,19.87
2018-12-18T09:36:15.452Z,19.67
2018-12-18T09:38:48.526Z,17.97
2018-12-18T09:41:21.551Z,19.40
2018-12-18T09:43:54.587Z,21.40
2018-12-18T09:46:22.988Z,21.43
2018-12-18T09:48:50.416Z,21.17
2018-12-18T09:51:18.172Z,23.37
2018-12-18T09:53:45.668Z,31.40
2018-12-18T09:56:13.236Z,26.13
2018-12-18T09:58:43.905Z,23.13
2018-12-18T10:01:11.328Z,23.30
2018-12-18T10:03:38.747Z,21.60
2018-12-18T10:06:06.176Z,23.57
2018-12-18T10:08:34.300Z,21.30
2018-12-18T10:11:01.716Z,22.20
2018-12-18T10:13:29.213Z,22.83
2018-12-18T10:15:57.309Z,20.43
2018-12-18T10:18:24.791Z,22.17
2018-12-18T10:20:52.227Z,21.77
2018-12-18T10:23:19.647Z,21.07
2018-12-18T10:25:47.069Z,21.33
2018-12-18T10:28:15.984Z,22.13
2018-12-18T10:30:43.472Z,21.23
2018-12-18T10:33:11.020Z,23.90
2018-12-18T10:35:38.441Z,31.00
2018-12-18T10:38:05.868Z,22.93
2018-12-18T10:40:33.289Z,20.23
2018-12-18T10:43:01.010Z,18.47
2018-12-18T10:45:30.555Z,17.10
2018-12-18T10:47:58.002Z,16.43
2018-12-18T10:50:25.422Z,16.57
2018-12-18T10:52:53.236Z,15.90
2018-12-18T10:55:20.667Z,14.57
2018-12-18T10:57:48.120Z,15.70
2018-12-18T11:00:17.572Z,16.37
2018-12-18T11:02:49.704Z,16.27
2018-12-18T11:05:17.231Z,15.87
2018-12-18T11:07:44.648Z,16.80
2018-12-18T11:10:12.171Z,16.57
2018-12-18T11:12:39.596Z,16.40
2018-12-18T11:15:07.853Z,15.50
2018-12-18T11:17:35.388Z,16.40
2018-12-18T11:20:04.801Z,14.77
2018-12-18T11:22:32.243Z,14.70
2018-12-18T11:25:00.366Z,14.20
2018-12-18T11:27:30.328Z,14.83
2018-12-18T11:29:58.337Z,14.03
2018-12-18T11:32:25.768Z,14.53
2018-12-18T11:34:53.192Z,15.80
2018-12-18T11:37:20.665Z,14.20
2018-12-18T11:39:48.084Z,14.27
2018-12-18T11:42:15.550Z,12.43
2018-12-18T11:44:44.813Z,13.67
2018-12-18T11:47:12.236Z,14.87
2018-12-18T11:49:39.660Z,14.27
2018-12-18T11:52:07.080Z,14.10
2018-12-18T11:54:34.620Z,14.97
2018-12-18T11:57:02.052Z,13.73
2018-12-18T11:59:30.352Z,14.57
2018-12-18T12:01:57.778Z,13.60
2018-12-18T12:04:25.217Z,14.30
2018-12-18T12:06:52.804Z,14.40
2018-12-18T12:09:20.224Z,12.60
2018-12-18T12:11:47.755Z,13.57
2018-12-18T12:14:15.255Z,12.07
2018-12-18T12:16:42.676Z,13.30
2018-12-18T12:19:10.313Z,12.63
2018-12-18T12:21:37.776Z,12.47
2018-12-18T12:24:05.256Z,12.50
2018-12-18T12:26:34.976Z,11.17
2018-12-18T12:29:02.433Z,12.73
2018-12-18T12:31:29.931Z,12.67
2018-12-18T12:33:57.420Z,12.40
2018-12-18T12:36:29.584Z,12.53
2018-12-18T12:38:54.293Z,12.73
2018-12-18T12:41:21.728Z,12.67
2018-12-18T12:43:49.212Z,13.07
2018-12-18T12:46:16.631Z,12.70
2018-12-18T12:48:49.948Z,12.60
2018-12-18T12:51:17.449Z,12.03
2018-12-18T12:53:44.879Z,12.37
2018-12-18T12:56:12.293Z,11.90
2018-12-18T12:58:39.842Z,11.20
2018-12-18T13:01:07.264Z,11.20
2018-12-18T13:03:34.695Z,10.30
2018-12-18T13:06:03.284Z,10.47
2018-12-18T13:08:31.248Z,8.97
2018-12-18T13:10:58.701Z,8.97
2018-12-18T13:13:26.136Z,6.87
2018-12-18T13:15:53.551Z,6.03
2018-12-18T13:18:20.971Z,4.80
2018-12-18T13:20:49.205Z,4.30
2018-12-18T13:23:16.624Z,3.70
2018-12-18T13:25:44.034Z,3.37
2018-12-18T13:28:11.868Z,3.00
2018-12-18T13:30:39.505Z,3.23
2018-12-18T13:33:06.922Z,3.33
2018-12-18T13:35:34.411Z,2.60
2018-12-18T13:38:01.883Z,2.77
2018-12-18T13:40:29.315Z,3.10
2018-12-18T13:42:56.803Z,3.73
2018-12-18T13:45:24.219Z,3.60
2018-12-18T13:47:51.627Z,3.70
2018-12-18T13:50:19.088Z,3.83
2018-12-18T13:52:46.508Z,3.93
2018-12-18T13:55:13.929Z,3.70
2018-12-18T13:57:41.847Z,4.23
2018-12-18T14:00:09.348Z,3.63
2018-12-18T14:02:36.976Z,4.50
2018-12-18T14:05:05.328Z,4.27
2018-12-18T14:07:32.739Z,3.33
2018-12-18T14:10:00.287Z,3.73
2018-12-18T14:12:27.696Z,3.60
2018-12-18T14:14:55.111Z,3.33
2018-12-18T14:17:22.532Z,3.77
2018-12-18T14:19:49.975Z,3.83
2018-12-18T14:22:17.392Z,3.30
2018-12-18T14:24:45.656Z,3.27
2018-12-18T14:27:13.936Z,3.17
2018-12-18T14:29:41.384Z,3.20
2018-12-18T14:32:09.448Z,3.00
2018-12-18T14:34:36.833Z,2.97
2018-12-18T14:37:04.239Z,3.27
2018-12-18T14:39:31.711Z,3.30
2018-12-18T14:41:59.120Z,3.33
2018-12-18T14:44:26.548Z,3.00
2018-12-18T14:46:53.996Z,3.07
2018-12-18T14:49:22.255Z,2.97
2018-12-18T14:51:49.676Z,2.83
2018-12-18T14:54:17.252Z,3.40
2018-12-18T14:56:44.673Z,3.60
2018-12-18T14:59:12.078Z,3.50
2018-12-18T15:01:39.556Z,3.00
2018-12-18T15:04:06.975Z,3.00
2018-12-18T15:06:34.385Z,3.40
2018-12-18T15:09:01.981Z,3.20
2018-12-18T15:11:29.400Z,3.20
2018-12-18T15:13:56.816Z,3.50
2018-12-18T15:16:24.232Z,3.53
2018-12-18T15:18:51.645Z,3.50
2018-12-18T15:21:19.064Z,3.43
2018-12-18T15:23:46.472Z,3.30
2018-12-18T15:26:13.912Z,3.30
2018-12-18T15:28:41.432Z,3.00
2018-12-18T15:31:08.856Z,3.13
2018-12-18T15:33:36.316Z,2.97
2018-12-18T15:36:03.957Z,2.93
2018-12-18T15:38:31.375Z,2.83
2018-12-18T15:40:58.783Z,3.37
2018-12-18T15:43:26.280Z,3.00
2018-12-18T15:45:53.772Z,2.80
2018-12-18T15:48:21.232Z,2.77
2018-12-18T15:50:48.681Z,2.77
2018-12-18T15:53:16.141Z,3.00
2018-12-18T15:55:43.649Z,2.90
2018-12-18T15:58:11.856Z,3.20
2018-12-18T16:00:39.264Z,3.30
2018-12-18T16:03:06.692Z,4.03
2018-12-18T16:05:34.105Z,3.43
2018-12-18T16:08:01.592Z,3.40
2018-12-18T16:10:29.087Z,3.20
2018-12-18T16:12:56.581Z,3.70
2018-12-18T16:15:24.002Z,3.77
2018-12-18T16:17:51.494Z,2.97
2018-12-18T16:20:18.901Z,3.50
2018-12-18T16:22:47.071Z,2.80
2018-12-18T16:25:15.094Z,3.00
2018-12-18T16:27:42.663Z,3.50
2018-12-18T16:30:10.080Z,3.70
2018-12-18T16:32:38.459Z,3.80
2018-12-18T16:35:06.056Z,4.20
2018-12-18T16:37:33.498Z,4.20
2018-12-18T16:40:00.956Z,4.07
2018-12-18T16:42:28.372Z,3.87
2018-12-18T16:44:55.801Z,4.07
2018-12-18T16:47:23.645Z,3.67
2018-12-18T16:49:51.681Z,3.80
2018-12-18T16:52:19.491Z,4.77
2018-12-18T16:54:46.904Z,4.60
2018-12-18T16:57:14.317Z,4.90
2018-12-18T16:59:42.649Z,6.20
2018-12-18T17:02:10.059Z,5.33
2018-12-18T17:04:37.468Z,4.27
2018-12-18T17:07:04.885Z,7.33
2018-12-18T17:09:32.418Z,7.90
2018-12-18T17:11:59.910Z,7.30
2018-12-18T17:14:27.364Z,13.17
2018-12-18T17:16:54.782Z,15.33
2018-12-18T17:19:22.274Z,14.77
2018-12-18T17:21:50.308Z,26.93
2018-12-18T17:24:17.812Z,22.10
2018-12-18T17:26:45.269Z,19.27
2018-12-18T17:29:12.698Z,23.27
2018-12-18T17:31:40.224Z,21.27
2018-12-18T17:34:07.657Z,17.40
2018-12-18T17:36:35.488Z,19.53
2018-12-18T17:39:04.848Z,15.13
2018-12-18T17:41:38.981Z,12.67
2018-12-18T17:44:06.481Z,11.07
2018-12-18T17:46:33.920Z,12.43
2018-12-18T17:49:01.341Z,12.83
2018-12-18T17:51:28.764Z,11.07
2018-12-18T17:53:56.185Z,10.83
2018-12-18T17:56:23.601Z,8.27
2018-12-18T17:58:51.017Z,9.43
2018-12-18T18:01:18.428Z,9.77
2018-12-18T18:03:45.869Z,14.30
2018-12-18T18:06:13.685Z,14.60
2018-12-18T18:08:41.105Z,11.67
2018-12-18T18:11:08.525Z,8.90
2018-12-18T18:13:35.935Z,7.93
2018-12-18T18:16:03.884Z,8.50
2018-12-18T18:18:31.301Z,8.10
2018-12-18T18:20:59.260Z,7.63
2018-12-18T18:23:29.104Z,7.03
2018-12-18T18:25:56.590Z,8.47
2018-12-18T18:28:24.432Z,9.13
2018-12-18T18:30:51.950Z,9.73
2018-12-18T18:33:19.380Z,7.90
2018-12-18T18:35:48.814Z,8.50
2018-12-18T18:38:16.313Z,8.13
2018-12-18T18:40:43.737Z,8.83
2018-12-18T18:43:11.168Z,11.60
2018-12-18T18:45:38.584Z,9.37
2018-12-18T18:48:06.017Z,9.93
2018-12-18T18:50:33.508Z,8.00
2018-12-18T18:53:00.936Z,8.13
2018-12-18T18:55:28.356Z,7.80
2018-12-18T18:57:55.857Z,7.60
2018-12-18T19:00:23.272Z,8.07
2018-12-18T19:02:50.709Z,7.77
2018-12-18T19:05:18.186Z,6.77
2018-12-18T19:07:45.604Z,7.70
2018-12-18T19:10:13.232Z,8.00
2018-12-18T19:12:40.659Z,7.00
2018-12-18T19:15:09.127Z,6.47
2018-12-18T19:17:36.547Z,7.00
2018-12-18T19:20:05.552Z,7.17
2018-12-18T19:22:32.968Z,7.60
2018-12-18T19:25:00.392Z,6.77
2018-12-18T19:27:27.814Z,6.60
2018-12-18T19:29:56.036Z,6.97
2018-12-18T19:32:23.429Z,6.30
2018-12-18T19:34:50.850Z,6.40
2018-12-18T19:37:18.284Z,7.17
2018-12-18T19:39:46.295Z,6.20
2018-12-18T19:42:13.761Z,6.60
2018-12-18T19:44:41.464Z,6.90
2018-12-18T19:47:08.861Z,6.03
2018-12-18T19:49:36.280Z,6.50
2018-12-18T19:52:04.456Z,6.30
2018-12-18T19:54:31.873Z,7.97
2018-12-18T19:56:59.300Z,6.80
2018-12-18T19:59:26.759Z,7.23
2018-12-18T20:01:54.188Z,6.63
2018-12-18T20:04:21.693Z,6.60
2018-12-18T20:06:49.116Z,8.30
2018-12-18T20:09:16.835Z,6.77
2018-12-18T20:11:44.337Z,10.03
2018-12-18T20:14:12.484Z,12.23
2018-12-18T20:16:40.032Z,7.83
2018-12-18T20:19:07.468Z,8.30
2018-12-18T20:21:34.916Z,8.87
2018-12-18T20:24:02.336Z,8.77
2018-12-18T20:26:29.776Z,7.43
2018-12-18T20:28:58.600Z,8.10
2018-12-18T20:31:26.045Z,7.57
2018-12-18T20:33:53.452Z,8.13
2018-12-18T20:36:20.896Z,8.53
2018-12-18T20:38:48.815Z,7.53
2018-12-18T20:41:16.273Z,7.50
2018-12-18T20:43:43.792Z,7.93
2018-12-18T20:46:11.292Z,7.80
2018-12-18T20:48:39.174Z,8.30
2018-12-18T20:51:06.588Z,7.57
2018-12-18T20:53:34.426Z,8.77
2018-12-18T20:56:01.860Z,8.80
2018-12-18T20:58:29.685Z,8.07
2018-12-18T21:00:57.100Z,7.60
2018-12-18T21:03:24.525Z,8.20
2018-12-18T21:05:54.512Z,9.17
2018-12-18T21:08:23.567Z,8.67
2018-12-18T21:10:51.466Z,8.93
2018-12-18T21:13:24.521Z,9.90
2018-12-18T21:15:51.943Z,10.20
2018-12-18T21:18:19.443Z,9.47
2018-12-18T21:20:47.390Z,8.70
2018-12-18T21:23:14.826Z,7.93
2018-12-18T21:25:43.040Z,9.07
2018-12-18T21:28:10.505Z,9.57
2018-12-18T21:30:40.019Z,9.93
2018-12-18T21:33:07.557Z,10.50
2018-12-18T21:35:34.982Z,10.83
2018-12-18T21:38:02.828Z,10.57
2018-12-18T21:40:30.233Z,11.67
2018-12-18T21:42:57.704Z,10.03
2018-12-18T21:45:25.827Z,11.30
2018-12-18T21:47:53.329Z,11.70
2018-12-18T21:50:21.557Z,12.77
2018-12-18T21:52:49.395Z,12.30
2018-12-18T21:55:17.419Z,12.60
2018-12-18T21:57:45.566Z,13.10
2018-12-18T22:00:13.006Z,12.60
2018-12-18T22:02:40.496Z,10.50
2018-12-18T22:05:08.024Z,11.77
2018-12-18T22:07:35.444Z,12.40
2018-12-18T22:10:05.078Z,11.47
2018-12-18T22:12:33.438Z,11.77
2018-12-18T22:15:01.286Z,11.63
2018-12-18T22:17:29.524Z,11.07
2018-12-18T22:19:57.063Z,12.67
2018-12-18T22:22:24.452Z,13.37
2018-12-18T22:24:52.408Z,11.93
2018-12-18T22:27:19.968Z,11.73
2018-12-18T22:29:47.394Z,13.17
2018-12-18T22:32:17.236Z,14.47
2018-12-18T22:34:45.644Z,14.00
2018-12-18T22:37:14.454Z,14.17
2018-12-18T22:39:42.800Z,14.10
2018-12-18T22:42:10.240Z,14.43
2018-12-18T22:44:37.732Z,15.87
2018-12-18T22:47:05.203Z,15.43
2018-12-18T22:49:32.688Z,16.40
2018-12-18T22:52:00.113Z,17.97
2018-12-18T22:54:27.651Z,23.03
2018-12-18T22:56:55.085Z,24.13
2018-12-18T22:59:22.611Z,18.93
2018-12-18T23:01:50.404Z,26.83
2018-12-18T23:04:17.810Z,22.13
2018-12-18T23:06:45.230Z,34.00
2018-12-18T23:09:15.929Z,25.33
2018-12-18T23:11:43.812Z,30.63
2018-12-18T23:14:11.288Z,23.30
2018-12-18T23:16:38.787Z,21.40
2018-12-18T23:19:06.217Z,19.40
2018-12-18T23:21:33.687Z,19.00
2018-12-18T23:24:01.112Z,23.50
2018-12-18T23:26:28.975Z,22.07
2018-12-18T23:28:56.407Z,18.77
2018-12-18T23:31:23.868Z,19.53
2018-12-18T23:33:51.340Z,24.97
2018-12-18T23:36:19.303Z,25.97
2018-12-18T23:38:46.756Z,23.03
2018-12-18T23:41:14.283Z,21.27
2018-12-18T23:43:43.044Z,19.73
2018-12-18T23:46:10.548Z,19.97
2018-12-18T23:48:39.810Z,18.90
2018-12-18T23:51:08.362Z,18.90
2018-12-18T23:53:36.213Z,19.57
2018-12-18T23:56:03.708Z,23.97
2018-12-18T23:58:31.151Z,22.87
